Time;durP1;ratioP1;P1;durP2;ratioP2;P2;SDS_P1;SDS_P2;PMS_P1;PMS_P2;Temp;Humidity;BMP_temperature;BMP_pressure;BME280_temperature;BME280_humidity;BME280_pressure;Samples;Min_cycle;Max_cycle;Signal;HPM_P1;HPM_P2
2021/08/06 02:45:23;;;;;;;5.10;4.60;;;17.70;99.90;;;;;;5615201;24;20028;-80
2021/08/06 02:47:52;;;;;;;7.63;4.30;;;17.70;99.90;;;;;;4729109;30;20037;-82
2021/08/06 02:50:18;;;;;;;6.38;4.50;;;17.70;99.90;;;;;;4736253;30;20047;-83
2021/08/06 02:52:44;;;;;;;5.57;4.45;;;17.60;99.90;;;;;;4746689;30;20037;-83
2021/08/06 02:55:10;;;;;;;6.55;4.45;;;17.60;99.90;;;;;;4741449;30;20055;-81
2021/08/06 02:57:38;;;;;;;7.82;4.68;;;17.70;99.90;;;;;;4740785;30;20031;-81
2021/08/06 03:00:05;;;;;;;5.53;4.57;;;17.60;99.90;;;;;;4759191;30;20327;-83
2021/08/06 03:02:34;;;;;;;5.53;4.70;;;17.60;99.90;;;;;;4746943;30;20063;-81
2021/08/06 03:05:00;;;;;;;5.03;4.53;;;17.60;99.90;;;;;;4747667;30;20032;-81
2021/08/06 03:07:25;;;;;;;5.45;4.45;;;17.50;99.90;;;;;;4755842;30;20025;-81
2021/08/06 03:09:51;;;;;;;5.28;4.50;;;17.50;99.90;;;;;;4746950;30;20055;-81
2021/08/06 03:12:18;;;;;;;5.85;5.05;;;17.50;99.90;;;;;;4743790;30;20036;-83
2021/08/06 03:14:44;;;;;;;4.75;4.13;;;17.50;99.90;;;;;;4748172;30;20045;-83
2021/08/06 03:17:12;;;;;;;5.47;4.43;;;17.50;99.90;;;;;;4737419;30;20025;-83
2021/08/06 03:19:42;;;;;;;7.50;5.97;;;17.50;99.90;;;;;;4744171;30;20032;-83
2021/08/06 03:22:08;;;;;;;9.77;5.70;;;17.50;99.90;;;;;;4743442;30;20302;-83
2021/08/06 03:24:34;;;;;;;6.60;5.15;;;17.40;99.90;;;;;;4741539;30;20040;-83
2021/08/06 03:27:00;;;;;;;8.07;5.80;;;17.40;99.90;;;;;;4744644;30;20025;-83
2021/08/06 03:29:26;;;;;;;6.72;5.93;;;17.40;99.90;;;;;;4749150;30;20088;-83
2021/08/06 03:31:53;;;;;;;9.07;6.85;;;17.30;99.90;;;;;;4743458;30;20362;-83
2021/08/06 03:34:19;;;;;;;6.93;6.22;;;17.30;99.90;;;;;;4763328;30;20028;-83
2021/08/06 03:36:45;;;;;;;14.30;8.77;;;17.30;99.90;;;;;;4758806;30;20231;-83
2021/08/06 03:39:12;;;;;;;8.07;6.45;;;17.30;99.90;;;;;;4737102;30;20274;-83
2021/08/06 03:41:39;;;;;;;;;;;17.30;99.90;;;;;;4732416;30;20092;-83
2021/08/06 03:44:05;;;;;;;15.20;8.80;;;17.30;99.90;;;;;;4731552;30;19957;-83
2021/08/06 03:46:32;;;;;;;13.82;10.38;;;17.30;99.90;;;;;;4757085;30;20054;-83
2021/08/06 03:48:57;;;;;;;11.70;9.65;;;17.30;99.90;;;;;;4731900;30;20032;-83
2021/08/06 03:51:25;;;;;;;10.10;9.05;;;17.30;99.90;;;;;;4736966;30;20028;-83
2021/08/06 03:53:51;;;;;;;14.68;10.77;;;17.30;99.90;;;;;;4746303;30;20028;-83
2021/08/06 03:56:17;;;;;;;16.20;11.15;;;17.30;99.90;;;;;;4748342;30;20039;-83
2021/08/06 03:58:42;;;;;;;11.70;10.50;;;17.30;99.90;;;;;;4738857;30;20035;-83
2021/08/06 04:01:09;;;;;;;10.68;9.43;;;17.40;99.90;;;;;;4731809;30;20041;-83
2021/08/06 04:03:36;;;;;;;13.77;10.70;;;17.40;99.90;;;;;;4735251;30;20038;-83
2021/08/06 04:06:06;;;;;;;16.33;10.75;;;17.50;99.90;;;;;;4763146;30;20070;-83
2021/08/06 04:08:32;;;;;;;16.33;12.00;;;17.60;99.90;;;;;;4763250;30;20239;-83
2021/08/06 04:10:59;;;;;;;10.70;9.02;;;17.60;99.90;;;;;;4747647;30;20021;-83
2021/08/06 04:13:24;;;;;;;15.10;10.38;;;17.60;99.90;;;;;;4742893;30;20029;-83
2021/08/06 04:15:50;;;;;;;12.20;10.00;;;17.70;99.90;;;;;;4745175;30;20040;-83
2021/08/06 04:18:16;;;;;;;11.20;10.10;;;17.70;99.90;;;;;;4760483;30;20039;-83
2021/08/06 04:20:42;;;;;;;16.52;10.07;;;17.80;99.90;;;;;;4748335;30;20024;-83
2021/08/06 04:23:08;;;;;;;12.68;10.25;;;17.90;99.90;;;;;;4748566;30;20077;-83
2021/08/06 04:25:34;;;;;;;12.88;9.60;;;17.90;99.90;;;;;;4748230;30;20051;-83
2021/08/06 04:28:00;;;;;;;14.68;10.95;;;18.00;99.90;;;;;;4746960;30;20039;-83
2021/08/06 04:30:26;;;;;;;14.05;10.55;;;18.10;99.90;;;;;;4748243;30;20119;-83
2021/08/06 04:32:52;;;;;;;13.57;10.85;;;18.20;99.90;;;;;;4751105;30;20052;-83
2021/08/06 04:35:18;;;;;;;14.13;9.30;;;18.30;99.90;;;;;;4762618;30;20020;-83
2021/08/06 04:37:49;;;;;;;12.63;9.90;;;18.40;99.90;;;;;;4744328;30;20047;-83
2021/08/06 04:40:16;;;;;;;11.02;9.32;;;18.60;99.90;;;;;;4766656;30;20103;-81
2021/08/06 04:42:43;;;;;;;12.32;10.02;;;18.70;99.90;;;;;;4751306;30;20035;-81
2021/08/06 04:45:09;;;;;;;17.33;9.50;;;18.80;99.90;;;;;;4734132;30;20044;-83
2021/08/06 04:47:35;;;;;;;13.77;9.07;;;18.80;99.90;;;;;;4733864;30;20086;-83
2021/08/06 04:50:02;;;;;;;10.00;8.93;;;18.90;99.90;;;;;;4745103;30;20064;-83
2021/08/06 04:52:29;;;;;;;9.63;7.78;;;19.00;99.90;;;;;;4754727;30;20024;-83
2021/08/06 04:54:55;;;;;;;9.13;8.18;;;19.00;99.90;;;;;;4765876;30;20140;-83
2021/08/06 04:57:21;;;;;;;13.80;7.57;;;19.00;99.90;;;;;;4739640;30;20028;-83
2021/08/06 04:59:46;;;;;;;14.68;8.15;;;19.00;99.90;;;;;;4747561;30;20519;-83
2021/08/06 05:02:12;;;;;;;8.15;7.32;;;19.00;99.90;;;;;;4733543;30;20044;-83
2021/08/06 05:04:38;;;;;;;8.52;7.13;;;19.10;99.90;;;;;;4758256;30;20413;-83
2021/08/06 05:07:04;;;;;;;7.93;6.80;;;19.10;99.90;;;;;;4719305;30;20036;-83
2021/08/06 05:09:30;;;;;;;14.27;6.38;;;19.10;99.90;;;;;;4751934;30;20319;-83
2021/08/06 05:11:56;;;;;;;9.07;6.70;;;19.20;99.90;;;;;;4729933;30;20310;-81
2021/08/06 05:14:21;;;;;;;9.18;6.05;;;19.30;99.90;;;;;;4741814;30;20112;-81
2021/08/06 05:16:47;;;;;;;8.77;6.43;;;19.30;99.90;;;;;;4755135;30;20082;-83
2021/08/06 05:19:13;;;;;;;6.97;5.22;;;19.40;99.90;;;;;;4735576;30;20044;-83
2021/08/06 05:21:39;;;;;;;8.73;6.55;;;19.60;99.90;;;;;;4729114;30;20028;-83
2021/08/06 05:24:05;;;;;;;7.40;5.57;;;19.80;99.90;;;;;;4744467;30;20306;-83
2021/08/06 05:26:31;;;;;;;7.15;5.07;;;19.70;99.90;;;;;;4729134;30;20021;-84
2021/08/06 05:28:57;;;;;;;10.90;4.90;;;19.80;99.90;;;;;;4729282;30;20039;-84
2021/08/06 05:31:23;;;;;;;8.77;5.20;;;19.80;99.90;;;;;;4724721;30;20032;-83
2021/08/06 05:33:49;;;;;;;5.13;4.63;;;20.00;99.90;;;;;;4738268;30;20098;-83
2021/08/06 05:36:15;;;;;;;8.07;4.50;;;20.20;99.90;;;;;;4745095;30;20209;-83
2021/08/06 05:38:41;;;;;;;6.10;4.00;;;20.40;99.70;;;;;;4745906;30;20362;-83
2021/08/06 05:41:07;;;;;;;10.25;4.03;;;20.60;99.50;;;;;;4754179;30;20326;-83
2021/08/06 05:43:33;;;;;;;10.65;4.38;;;20.80;98.90;;;;;;4748265;30;20181;-83
2021/08/06 05:45:59;;;;;;;3.95;3.35;;;21.00;98.60;;;;;;4747671;30;20365;-83
2021/08/06 05:48:28;;;;;;;8.80;4.18;;;21.20;97.70;;;;;;4745298;30;20092;-83
2021/08/06 05:50:54;;;;;;;6.43;3.85;;;21.40;97.50;;;;;;4747667;30;20045;-83
2021/08/06 05:53:23;;;;;;;7.88;3.60;;;21.70;97.10;;;;;;4729718;30;20075;-83
2021/08/06 05:55:55;;;;;;;4.05;3.15;;;21.90;96.40;;;;;;4748035;30;20032;-84
2021/08/06 05:58:22;;;;;;;3.20;2.88;;;22.10;96.20;;;;;;4750596;30;20060;-84
2021/08/06 06:00:48;;;;;;;3.15;2.63;;;22.10;95.20;;;;;;4744841;30;20033;-84
2021/08/06 06:03:22;;;;;;;11.13;3.03;;;22.10;94.70;;;;;;4740573;30;20060;-84
2021/08/06 06:05:59;;;;;;;3.17;2.65;;;22.00;94.60;;;;;;4733332;30;20385;-85
2021/08/06 06:08:26;;;;;;;4.45;2.67;;;21.90;94.50;;;;;;4745038;30;20032;-84
2021/08/06 06:10:53;;;;;;;5.75;2.28;;;21.80;93.60;;;;;;4746461;30;20032;-84
2021/08/06 06:13:19;;;;;;;3.00;2.30;;;21.70;94.10;;;;;;4743184;30;20058;-85
2021/08/06 06:15:45;;;;;;;7.03;2.80;;;21.60;93.90;;;;;;4742234;30;20024;-85
2021/08/06 06:18:15;;;;;;;3.58;2.10;;;21.60;94.40;;;;;;4739577;30;20286;-86
2021/08/06 06:20:42;;;;;;;5.35;2.45;;;21.50;94.60;;;;;;4737317;30;20043;-86
2021/08/06 06:23:10;;;;;;;3.72;2.60;;;21.50;94.30;;;;;;4739209;30;20024;-79
2021/08/06 06:25:36;;;;;;;3.20;2.15;;;21.50;94.80;;;;;;4755149;30;20067;-79
2021/08/06 06:28:04;;;;;;;3.40;2.70;;;21.30;94.60;;;;;;4732876;30;20331;-81
2021/08/06 06:30:38;;;;;;;7.20;2.30;;;21.20;94.90;;;;;;4750424;30;20065;-80
2021/08/06 06:33:05;;;;;;;4.78;2.28;;;21.10;94.80;;;;;;4747940;30;20128;-80
2021/08/06 06:35:33;;;;;;;5.32;2.60;;;21.00;94.90;;;;;;4760969;30;20051;-81
2021/08/06 06:38:00;;;;;;;5.28;2.42;;;20.90;95.40;;;;;;4753576;30;20108;-81
2021/08/06 06:40:28;;;;;;;3.03;2.05;;;20.90;95.40;;;;;;4720027;30;20067;-81
2021/08/06 06:42:56;;;;;;;2.97;2.38;;;20.90;95.70;;;;;;4746444;30;20064;-81
2021/08/06 06:45:24;;;;;;;6.97;2.53;;;20.90;95.80;;;;;;4746520;30;20086;-81
2021/08/06 06:47:52;;;;;;;2.50;2.03;;;20.90;95.70;;;;;;4728842;30;20037;-81
2021/08/06 06:50:28;;;;;;;4.35;2.30;;;20.90;95.50;;;;;;4728774;30;20116;-81
2021/08/06 06:52:57;;;;;;;2.45;2.05;;;20.90;95.70;;;;;;4717479;30;20151;-80
2021/08/06 06:55:23;;;;;;;3.35;2.63;;;20.80;95.50;;;;;;4729736;30;20040;-81
2021/08/06 06:57:58;;;;;;;6.25;2.00;;;20.90;95.80;;;;;;4728189;30;20040;-80
2021/08/06 07:00:29;;;;;;;5.95;2.53;;;21.00;95.60;;;;;;4728920;30;20041;-81
2021/08/06 07:02:56;;;;;;;6.88;2.25;;;21.10;95.20;;;;;;4728774;30;20336;-81
2021/08/06 07:05:22;;;;;;;7.18;2.30;;;21.00;94.70;;;;;;4729061;30;20029;-81
2021/08/06 07:07:49;;;;;;;5.45;2.88;;;20.90;95.00;;;;;;4729718;30;20033;-81
2021/08/06 07:10:15;;;;;;;2.78;2.50;;;20.90;95.40;;;;;;4729537;30;20110;-81
2021/08/06 07:12:43;;;;;;;4.53;2.40;;;21.10;95.40;;;;;;4729808;30;20033;-81
2021/08/06 07:15:11;;;;;;;4.10;2.20;;;21.40;95.10;;;;;;4730260;30;20020;-80
2021/08/06 07:17:38;;;;;;;8.95;2.30;;;21.60;94.40;;;;;;4726193;30;20033;-80
2021/08/06 07:20:08;;;;;;;2.72;2.00;;;21.80;93.80;;;;;;4725307;30;20083;-81
2021/08/06 07:22:35;;;;;;;4.32;2.30;;;21.90;93.40;;;;;;4729777;30;20040;-80
2021/08/06 07:25:02;;;;;;;7.30;2.05;;;22.00;93.10;;;;;;4729810;30;20028;-81
2021/08/06 07:27:28;;;;;;;2.90;2.30;;;22.10;93.10;;;;;;4728856;30;20317;-80
2021/08/06 07:29:53;;;;;;;5.25;2.80;;;22.20;93.10;;;;;;4729514;30;20096;-81
2021/08/06 07:32:19;;;;;;;4.63;2.42;;;22.20;92.00;;;;;;4728612;30;20096;-80
2021/08/06 07:34:45;;;;;;;3.83;2.45;;;22.30;92.00;;;;;;4730278;30;20190;-81
2021/08/06 07:37:12;;;;;;;9.23;2.15;;;22.30;92.10;;;;;;4742729;30;20342;-79
2021/08/06 07:39:39;;;;;;;3.33;2.40;;;22.50;91.70;;;;;;4728697;30;20021;-80
2021/08/06 07:42:06;;;;;;;3.80;2.30;;;22.60;91.40;;;;;;4743666;30;20083;-80
2021/08/06 07:44:32;;;;;;;6.47;1.95;;;22.90;91.80;;;;;;4714940;30;20056;-81
2021/08/06 07:46:58;;;;;;;4.72;2.95;;;23.10;91.00;;;;;;4731745;30;20068;-81
2021/08/06 07:49:24;;;;;;;5.05;2.28;;;23.20;90.90;;;;;;4757113;30;20263;-81
2021/08/06 07:51:49;;;;;;;4.65;2.60;;;23.30;89.50;;;;;;4748929;30;20039;-79
2021/08/06 07:54:15;;;;;;;3.17;2.42;;;23.20;90.10;;;;;;4737412;30;20047;-81
2021/08/06 07:56:41;;;;;;;3.47;1.95;;;23.30;90.10;;;;;;4759949;30;20083;-80
2021/08/06 07:59:07;;;;;;;3.63;1.88;;;23.40;89.40;;;;;;4756197;30;20035;-81
2021/08/06 08:01:33;;;;;;;2.80;2.20;;;23.50;88.40;;;;;;4760440;30;20032;-81
2021/08/06 08:03:59;;;;;;;5.20;2.25;;;23.50;88.80;;;;;;4749733;30;20212;-81
2021/08/06 08:06:25;;;;;;;7.33;2.70;;;23.70;88.90;;;;;;4761218;30;20381;-81
2021/08/06 08:08:51;;;;;;;3.38;2.33;;;23.80;87.20;;;;;;4748380;30;20028;-80
2021/08/06 08:11:17;;;;;;;2.47;1.88;;;23.80;85.60;;;;;;4746611;30;20104;-81
2021/08/06 08:13:42;;;;;;;6.07;2.42;;;23.70;86.00;;;;;;4751976;30;20036;-78
2021/08/06 08:16:08;;;;;;;6.18;2.33;;;23.90;85.60;;;;;;4735967;30;20039;-80
2021/08/06 08:18:35;;;;;;;4.73;1.87;;;24.00;86.30;;;;;;4730867;30;20032;-81
2021/08/06 08:21:01;;;;;;;4.30;2.00;;;24.20;84.50;;;;;;4748523;30;20327;-78
2021/08/06 08:23:27;;;;;;;3.58;2.25;;;24.20;82.50;;;;;;4737776;30;20027;-79
2021/08/06 08:25:54;;;;;;;2.40;2.20;;;24.00;83.30;;;;;;4744192;30;20041;-79
2021/08/06 08:28:24;;;;;;;10.55;2.50;;;23.90;83.90;;;;;;4745989;30;20024;-79
2021/08/06 08:30:52;;;;;;;3.00;2.10;;;23.90;86.40;;;;;;4757803;30;20047;-80
2021/08/06 08:33:20;;;;;;;2.30;2.10;;;24.10;85.80;;;;;;4749459;30;20027;-79
2021/08/06 08:35:47;;;;;;;3.42;2.28;;;24.30;84.90;;;;;;4748252;30;20038;-80
2021/08/06 08:38:13;;;;;;;4.40;2.10;;;24.50;84.70;;;;;;4749489;30;20036;-80
2021/08/06 08:40:40;;;;;;;5.93;2.10;;;24.70;83.20;;;;;;4751981;30;20037;-80
2021/08/06 08:43:08;;;;;;;5.85;2.47;;;24.80;82.50;;;;;;4762635;30;20082;-80
2021/08/06 08:45:39;;;;;;;;;;;24.80;82.80;;;;;;4735898;30;20133;-81
2021/08/06 08:48:11;;;;;;;3.47;2.42;;;24.80;82.60;;;;;;4746228;30;20110;-81
2021/08/06 08:50:39;;;;;;;9.38;3.97;;;24.80;83.80;;;;;;4751337;30;20028;-81
2021/08/06 08:53:07;;;;;;;4.10;2.80;;;25.00;82.60;;;;;;4744516;30;20021;-82
2021/08/06 08:55:34;;;;;;;5.85;2.75;;;25.10;81.00;;;;;;4748290;30;20124;-82
2021/08/06 08:58:00;;;;;;;4.13;2.13;;;25.20;80.50;;;;;;4748625;30;20315;-82
2021/08/06 09:00:27;;;;;;;6.63;2.10;;;25.40;81.80;;;;;;4747333;30;20040;-82
2021/08/06 09:02:53;;;;;;;3.78;1.80;;;25.50;76.70;;;;;;4742992;30;20035;-82
2021/08/06 09:05:21;;;;;;;2.40;1.98;;;25.40;75.30;;;;;;4747724;30;20059;-82
2021/08/06 09:07:57;;;;;;;6.40;1.80;;;25.20;73.50;;;;;;4742417;30;20024;-82
2021/08/06 09:10:29;;;;;;;2.33;2.00;;;25.30;77.50;;;;;;4731198;30;20220;-82
2021/08/06 09:13:13;;;;;;;2.38;2.00;;;25.70;77.00;;;;;;4750951;30;20052;-82
2021/08/06 09:15:54;;;;;;;2.83;1.98;;;26.00;73.70;;;;;;4739030;30;20043;-82
2021/08/06 09:18:29;;;;;;;2.90;2.20;;;25.90;74.90;;;;;;4772058;30;20240;-81
2021/08/06 09:21:02;;;;;;;3.45;2.42;;;25.70;72.30;;;;;;4727472;30;20151;-81
2021/08/06 09:24:04;;;;;;;2.60;2.30;;;25.50;74.20;;;;;;4737323;30;20362;-81
2021/08/06 09:26:40;;;;;;;4.15;2.10;;;25.60;73.40;;;;;;4700991;30;20382;-82
2021/08/06 09:29:24;;;;;;;2.75;2.10;;;25.80;76.70;;;;;;4746803;30;20103;-82
2021/08/06 09:31:50;;;;;;;3.03;2.08;;;26.40;76.40;;;;;;4721630;30;20093;-82
2021/08/06 09:34:36;;;;;;;4.53;2.13;;;26.60;74.80;;;;;;4706418;30;20247;-82
2021/08/06 09:37:09;;;;;;;4.15;2.08;;;26.30;70.50;;;;;;4700630;30;20048;-81
2021/08/06 09:39:39;;;;;;;6.03;2.13;;;25.70;72.30;;;;;;4718671;30;20063;-81
2021/08/06 09:42:13;;;;;;;7.90;2.45;;;25.40;73.00;;;;;;4701534;30;20053;-82
2021/08/06 09:44:38;;;;;;;3.10;2.00;;;25.20;75.50;;;;;;4716481;30;20399;-82
2021/08/06 09:47:19;;;;;;;3.55;2.47;;;25.30;77.00;;;;;;4724376;30;20052;-81
2021/08/06 09:49:54;;;;;;;4.22;1.90;;;25.30;75.20;;;;;;4718233;30;20044;-81
2021/08/06 09:52:32;;;;;;;2.25;2.05;;;25.20;76.50;;;;;;4707895;30;20169;-81
2021/08/06 09:54:58;;;;;;;7.97;3.35;;;25.20;76.90;;;;;;4707764;30;20050;-81
2021/08/06 09:57:24;;;;;;;4.80;2.63;;;25.00;79.00;;;;;;4724139;30;20355;-81
2021/08/06 09:59:52;;;;;;;6.70;3.33;;;24.80;79.50;;;;;;4734160;30;20129;-81
2021/08/06 10:02:32;;;;;;;9.02;2.92;;;24.70;80.70;;;;;;4758023;30;20350;-81
2021/08/06 10:05:10;;;;;;;8.30;3.03;;;24.50;82.10;;;;;;4755638;30;20092;-81
2021/08/06 10:07:38;;;;;;;7.53;2.72;;;24.50;82.70;;;;;;4762721;30;20036;-81
2021/08/06 10:10:08;;;;;;;4.00;2.88;;;24.40;84.20;;;;;;4754139;30;20033;-81
2021/08/06 10:12:34;;;;;;;7.00;3.35;;;24.20;86.60;;;;;;4756720;30;20036;-80
2021/08/06 10:14:59;;;;;;;3.58;2.95;;;23.90;88.30;;;;;;4739110;30;20204;-80
2021/08/06 10:17:25;;;;;;;7.35;3.03;;;23.90;90.10;;;;;;4735281;30;20051;-80
2021/08/06 10:19:52;;;;;;;4.03;2.95;;;23.70;90.70;;;;;;4749452;30;20103;-81
2021/08/06 10:22:18;;;;;;;9.68;4.07;;;23.30;91.60;;;;;;4759452;30;20032;-81
2021/08/06 10:24:50;;;;;;;8.70;4.30;;;23.10;93.00;;;;;;4749555;30;20042;-81
2021/08/06 10:27:20;;;;;;;5.63;3.42;;;22.90;93.60;;;;;;4760827;30;20033;-81
2021/08/06 10:30:01;;;;;;;6.53;3.38;;;22.80;94.40;;;;;;4747291;30;20033;-81
2021/08/06 10:32:28;;;;;;;4.53;3.40;;;22.90;95.70;;;;;;4746148;30;20040;-80
2021/08/06 10:35:07;;;;;;;7.53;3.60;;;23.10;96.10;;;;;;4762531;30;20024;-80
2021/08/06 10:38:06;;;;;;;3.78;3.05;;;23.50;94.40;;;;;;4757345;30;20043;-80
2021/08/06 10:40:32;;;;;;;7.05;4.05;;;23.70;94.60;;;;;;4735275;30;20356;-79
2021/08/06 10:43:17;;;;;;;8.32;2.72;;;23.90;93.10;;;;;;4748235;30;20024;-80
2021/08/06 10:45:51;;;;;;;3.13;2.83;;;24.20;93.20;;;;;;4752752;30;20037;-81
2021/08/06 10:48:37;;;;;;;7.90;2.85;;;24.30;92.30;;;;;;4752429;30;20056;-80
2021/08/06 10:51:15;;;;;;;3.58;3.15;;;24.50;91.70;;;;;;4755055;30;20044;-81
2021/08/06 10:54:08;;;;;;;2.78;2.40;;;24.50;92.10;;;;;;4752030;30;20029;-81
2021/08/06 10:56:39;;;;;;;3.97;2.60;;;24.70;90.70;;;;;;4748759;30;20041;-80
2021/08/06 10:59:13;;;;;;;4.05;2.90;;;24.80;88.30;;;;;;4742373;30;20033;-79
2021/08/06 11:01:50;;;;;;;5.25;2.40;;;25.00;88.50;;;;;;4729035;30;20398;-79
2021/08/06 11:04:17;;;;;;;6.80;2.67;;;25.20;89.60;;;;;;4752764;30;20216;-79
2021/08/06 11:06:46;;;;;;;4.82;2.47;;;25.90;89.90;;;;;;4759757;30;20073;-79
2021/08/06 11:09:31;;;;;;;3.50;2.22;;;26.30;87.50;;;;;;4756489;30;20032;-79
2021/08/06 11:12:03;;;;;;;5.32;2.65;;;26.90;83.60;;;;;;4760924;30;20040;-80
2021/08/06 11:14:28;;;;;;;2.45;2.25;;;27.20;80.60;;;;;;4759470;30;20328;-80
2021/08/06 11:16:58;;;;;;;6.82;2.45;;;27.20;79.10;;;;;;4754343;30;20095;-79
2021/08/06 11:19:35;;;;;;;2.75;1.85;;;26.90;78.60;;;;;;4747155;30;20029;-80
2021/08/06 11:22:02;;;;;;;;;;;26.60;77.50;;;;;;4746329;30;20036;-80
2021/08/06 11:24:35;;;;;;;2.38;2.17;;;26.10;77.60;;;;;;4752404;30;19946;-80
2021/08/06 11:27:03;;;;;;;2.83;2.53;;;25.70;79.50;;;;;;4750445;30;20108;-79
2021/08/06 11:29:29;;;;;;;3.30;2.40;;;25.50;80.30;;;;;;4726764;30;20049;-80
2021/08/06 11:32:01;;;;;;;3.83;2.43;;;25.20;80.60;;;;;;4752318;30;20032;-80
2021/08/06 11:34:28;;;;;;;3.78;2.35;;;25.30;81.80;;;;;;4745016;30;20323;-80
2021/08/06 11:37:00;;;;;;;4.97;2.15;;;25.80;82.30;;;;;;4746309;30;20028;-80
2021/08/06 11:39:27;;;;;;;7.00;2.35;;;25.80;78.20;;;;;;4741582;30;20087;-80
2021/08/06 11:41:54;;;;;;;5.25;2.35;;;25.30;78.70;;;;;;4757202;30;20028;-80
2021/08/06 11:44:20;;;;;;;6.50;2.13;;;25.20;78.40;;;;;;4757857;30;20048;-80
2021/08/06 11:46:48;;;;;;;2.25;2.05;;;25.00;78.50;;;;;;4738298;30;20045;-80
2021/08/06 11:49:15;;;;;;;2.83;2.53;;;24.80;79.30;;;;;;4746999;30;20032;-80
2021/08/06 11:51:53;;;;;;;4.10;2.22;;;24.40;85.20;;;;;;4755848;30;20043;-80
2021/08/06 11:54:22;;;;;;;3.97;2.58;;;23.90;88.70;;;;;;4748328;30;20288;-80
2021/08/06 11:56:59;;;;;;;5.80;2.75;;;23.50;90.70;;;;;;4730326;30;20036;-80
2021/08/06 11:59:25;;;;;;;4.65;2.80;;;23.40;91.80;;;;;;4745131;30;20224;-80
2021/08/06 12:02:17;;;;;;;6.70;2.77;;;23.10;92.40;;;;;;4754757;30;20039;-81
2021/08/06 12:04:43;;;;;;;5.18;3.03;;;23.10;93.00;;;;;;4741175;30;20051;-80
2021/08/06 12:07:10;;;;;;;5.75;3.22;;;23.00;93.60;;;;;;4745398;30;20111;-81
2021/08/06 12:09:35;;;;;;;8.88;3.88;;;22.90;94.50;;;;;;4739168;30;20040;-81
2021/08/06 12:12:01;;;;;;;7.03;4.15;;;22.70;96.30;;;;;;4748967;30;20024;-80
2021/08/06 12:14:28;;;;;;;5.68;3.35;;;22.50;96.20;;;;;;4757365;30;20485;-81
2021/08/06 12:16:54;;;;;;;;;;;22.30;96.50;;;;;;4737278;30;20028;-82
2021/08/06 12:19:21;;;;;;;9.17;3.83;;;22.40;97.50;;;;;;4755644;30;19910;-80
2021/08/06 12:21:47;;;;;;;4.22;3.70;;;22.50;97.20;;;;;;4756993;30;20032;-80
2021/08/06 12:24:16;;;;;;;7.47;4.22;;;22.80;97.70;;;;;;4732994;30;20040;-79
2021/08/06 12:26:50;;;;;;;9.93;4.43;;;23.10;97.90;;;;;;4752257;30;20036;-78
2021/08/06 12:29:20;;;;;;;6.63;3.33;;;23.50;98.80;;;;;;4734727;30;20086;-78
2021/08/06 12:31:55;;;;;;;4.90;3.67;;;23.80;97.50;;;;;;4729373;30;20033;-78
2021/08/06 12:34:27;;;;;;;3.80;3.17;;;24.00;97.20;;;;;;4764431;30;20318;-77
2021/08/06 12:37:05;;;;;;;3.38;3.08;;;24.30;96.20;;;;;;4753246;30;20040;-78
2021/08/06 12:39:48;;;;;;;6.40;3.55;;;24.50;95.50;;;;;;4741172;30;20047;-77
2021/08/06 12:42:18;;;;;;;3.45;2.95;;;24.70;95.90;;;;;;4748481;30;20151;-78
2021/08/06 12:45:05;;;;;;;5.15;3.38;;;24.90;94.30;;;;;;4754153;30;20294;-78
2021/08/06 12:47:50;;;;;;;4.00;2.97;;;25.00;93.40;;;;;;4750841;30;20076;-78
2021/08/06 12:50:31;;;;;;;8.07;3.40;;;25.00;93.60;;;;;;4755605;30;20040;-78
2021/08/06 12:53:11;;;;;;;3.58;2.88;;;24.80;94.30;;;;;;4745505;30;20205;-78
2021/08/06 12:55:38;;;;;;;3.25;2.67;;;25.00;94.10;;;;;;4750764;30;20067;-78
2021/08/06 12:58:10;;;;;;;6.72;3.38;;;25.30;94.60;;;;;;4747598;30;20040;-78
2021/08/06 13:00:47;;;;;;;5.22;2.80;;;25.90;94.60;;;;;;4748207;30;20047;-78
2021/08/06 13:03:19;;;;;;;2.72;2.42;;;26.20;92.60;;;;;;4739438;30;20041;-78
2021/08/06 13:05:48;;;;;;;3.38;2.47;;;26.50;90.20;;;;;;4755383;30;20070;-79
2021/08/06 13:08:19;;;;;;;2.63;2.03;;;26.70;87.60;;;;;;4741372;30;20037;-78
2021/08/06 13:10:47;;;;;;;2.30;1.90;;;26.80;86.60;;;;;;4759812;30;20036;-79
2021/08/06 13:13:14;;;;;;;2.53;1.65;;;26.60;87.30;;;;;;4757809;30;20043;-79
2021/08/06 13:15:41;;;;;;;2.92;2.30;;;26.60;86.50;;;;;;4765244;30;20050;-79
2021/08/06 13:18:07;;;;;;;5.30;2.40;;;26.70;87.60;;;;;;4756675;30;20095;-79
2021/08/06 13:20:37;;;;;;;2.75;2.03;;;26.50;88.40;;;;;;4751774;30;20313;-79
2021/08/06 13:23:04;;;;;;;4.25;1.90;;;26.70;87.60;;;;;;4755393;30;20163;-79
2021/08/06 13:25:30;;;;;;;1.70;1.58;;;26.80;83.20;;;;;;4747733;30;20138;-79
2021/08/06 13:27:56;;;;;;;5.30;1.63;;;26.70;77.80;;;;;;4761596;30;20032;-79
2021/08/06 13:30:22;;;;;;;3.35;2.05;;;26.50;79.80;;;;;;4745507;30;20311;-79
2021/08/06 13:32:48;;;;;;;6.15;1.85;;;26.40;80.80;;;;;;4755679;30;20247;-79
2021/08/06 13:35:14;;;;;;;2.13;1.90;;;26.40;80.70;;;;;;4760969;30;20425;-79
2021/08/06 13:37:40;;;;;;;3.13;2.47;;;26.30;80.60;;;;;;4761504;30;20033;-79
2021/08/06 13:40:07;;;;;;;2.55;2.00;;;26.30;82.70;;;;;;4733785;30;20282;-79
2021/08/06 13:42:33;;;;;;;2.75;2.10;;;26.70;81.70;;;;;;4755025;30;20037;-79
2021/08/06 13:44:59;;;;;;;3.42;2.30;;;27.00;81.30;;;;;;4734037;30;20037;-79
2021/08/06 13:47:24;;;;;;;2.78;1.80;;;27.20;79.10;;;;;;4754932;30;20056;-79
2021/08/06 13:49:51;;;;;;;3.25;1.83;;;27.20;77.80;;;;;;4732354;30;20040;-79
2021/08/06 13:52:17;;;;;;;2.13;1.67;;;27.20;77.00;;;;;;4748604;30;20075;-79
2021/08/06 13:54:43;;;;;;;2.72;1.60;;;27.40;73.70;;;;;;4750962;30;20037;-79
2021/08/06 13:57:09;;;;;;;4.20;2.15;;;27.40;70.60;;;;;;4756926;30;20043;-79
2021/08/06 13:59:35;;;;;;;2.50;2.20;;;27.30;73.20;;;;;;4762836;30;20028;-80
2021/08/06 14:02:01;;;;;;;2.70;1.65;;;27.20;72.90;;;;;;4762786;30;20099;-79
2021/08/06 14:04:27;;;;;;;2.85;1.80;;;27.20;75.00;;;;;;4757946;30;20084;-79
2021/08/06 14:06:55;;;;;;;2.47;1.98;;;27.20;74.60;;;;;;4751366;30;20327;-79
2021/08/06 14:09:21;;;;;;;2.88;1.63;;;27.20;73.50;;;;;;4729321;30;20314;-79
2021/08/06 14:11:46;;;;;;;3.42;1.60;;;27.30;74.30;;;;;;4733766;30;20029;-79
2021/08/06 14:14:12;;;;;;;1.98;1.65;;;27.50;72.20;;;;;;4759591;30;20211;-79
2021/08/06 14:16:38;;;;;;;4.80;1.60;;;27.50;72.10;;;;;;4751975;30;20056;-79
2021/08/06 14:19:04;;;;;;;2.13;1.73;;;27.20;71.70;;;;;;4730886;30;20035;-79
2021/08/06 14:21:29;;;;;;;2.45;2.00;;;27.00;72.30;;;;;;4752874;30;20088;-79
2021/08/06 14:23:55;;;;;;;2.38;1.88;;;27.00;75.00;;;;;;4749667;30;20040;-79
2021/08/06 14:26:21;;;;;;;3.70;2.00;;;26.80;74.70;;;;;;4741038;30;20028;-79
2021/08/06 14:28:47;;;;;;;2.63;1.88;;;26.70;75.20;;;;;;4729371;30;20054;-79
2021/08/06 14:31:13;;;;;;;3.13;2.05;;;26.70;74.50;;;;;;4729143;30;20239;-81
2021/08/06 14:33:42;;;;;;;3.03;2.08;;;26.60;74.20;;;;;;4758129;30;20082;-80
2021/08/06 14:36:10;;;;;;;2.10;1.63;;;26.50;74.50;;;;;;4741778;30;20032;-81
2021/08/06 14:38:36;;;;;;;2.30;1.70;;;26.50;74.90;;;;;;4731543;30;20025;-81
2021/08/06 14:41:03;;;;;;;2.83;2.10;;;26.50;74.40;;;;;;4753755;30;20112;-81
2021/08/06 14:43:29;;;;;;;3.00;1.77;;;26.50;74.80;;;;;;4759399;30;20035;-82
2021/08/06 14:45:54;;;;;;;2.03;1.60;;;26.40;73.70;;;;;;4745468;30;20028;-82
2021/08/06 14:48:20;;;;;;;2.42;1.42;;;26.50;73.60;;;;;;4770714;30;20036;-81
2021/08/06 14:50:46;;;;;;;3.70;1.83;;;26.40;74.00;;;;;;4755217;30;20108;-82
2021/08/06 14:53:12;;;;;;;4.30;1.70;;;26.30;74.50;;;;;;4743199;30;20017;-81
2021/08/06 14:55:38;;;;;;;7.82;2.10;;;26.30;74.00;;;;;;4748511;30;20064;-81
2021/08/06 14:58:04;;;;;;;4.07;1.80;;;26.00;72.10;;;;;;4763906;30;20028;-81
2021/08/06 15:00:30;;;;;;;5.55;1.60;;;25.90;72.40;;;;;;4762563;30;20043;-81
2021/08/06 15:02:55;;;;;;;3.08;1.83;;;26.00;72.10;;;;;;4731307;30;20108;-81
2021/08/06 15:05:21;;;;;;;1.98;1.30;;;26.20;72.50;;;;;;4745439;30;20041;-81
2021/08/06 15:07:48;;;;;;;6.22;1.23;;;26.30;72.20;;;;;;4751640;30;20032;-81
2021/08/06 15:10:15;;;;;;;3.63;1.20;;;26.30;69.20;;;;;;4736075;30;20082;-81
2021/08/06 15:12:41;;;;;;;3.17;1.50;;;26.00;68.20;;;;;;4759743;30;20278;-81
2021/08/06 15:15:07;;;;;;;1.38;1.25;;;25.90;67.90;;;;;;4756932;30;20093;-81
2021/08/06 15:17:33;;;;;;;2.00;1.20;;;25.70;68.00;;;;;;4746116;30;20041;-82
2021/08/06 15:19:59;;;;;;;2.97;1.23;;;25.80;68.80;;;;;;4746032;30;20132;-81
2021/08/06 15:22:25;;;;;;;1.60;1.25;;;25.80;68.00;;;;;;4742595;30;20036;-82
2021/08/06 15:24:53;;;;;;;3.30;1.23;;;25.90;68.60;;;;;;4737496;30;20060;-82
2021/08/06 15:27:19;;;;;;;2.42;1.45;;;26.20;69.40;;;;;;4757788;30;20059;-81
2021/08/06 15:29:46;;;;;;;5.93;1.40;;;26.60;66.40;;;;;;4752351;30;20039;-81
2021/08/06 15:32:12;;;;;;;1.70;1.13;;;26.70;65.60;;;;;;4731248;30;20056;-81
2021/08/06 15:34:38;;;;;;;6.53;1.13;;;27.00;66.30;;;;;;4746060;30;20044;-81
2021/08/06 15:37:07;;;;;;;3.15;1.38;;;27.10;65.20;;;;;;4745540;30;20024;-81